createdAt,value
2022-08-08T00:02:33.749Z,21.60
2022-08-08T00:05:44.016Z,21.60
2022-08-08T00:09:12.183Z,21.60
2022-08-08T00:12:30.497Z,21.60
2022-08-08T00:15:56.532Z,21.60
2022-08-08T00:19:07.853Z,21.60
2022-08-08T00:22:16.054Z,21.60
2022-08-08T00:25:38.990Z,21.60
2022-08-08T00:28:51.910Z,21.60
2022-08-08T00:32:15.587Z,21.60
2022-08-08T00:35:34.462Z,21.60
2022-08-08T00:38:54.604Z,21.60
2022-08-08T00:42:30.334Z,21.60
2022-08-08T00:45:59.581Z,21.60
2022-08-08T00:49:24.746Z,21.60
2022-08-08T00:52:40.913Z,21.50
2022-08-08T00:56:16.509Z,21.50
2022-08-08T00:59:46.569Z,21.50
2022-08-08T01:04:01.282Z,21.50
2022-08-08T01:07:06.024Z,21.50
2022-08-08T01:10:32.075Z,21.50
2022-08-08T01:13:58.450Z,21.50
2022-08-08T01:17:25.268Z,21.50
2022-08-08T01:21:04.558Z,21.50
2022-08-08T01:24:27.274Z,21.50
2022-08-08T01:27:51.094Z,21.50
2022-08-08T01:32:06.411Z,21.50
2022-08-08T01:35:11.169Z,21.50
2022-08-08T01:38:41.063Z,21.50
2022-08-08T01:41:55.157Z,21.40
2022-08-08T01:45:10.012Z,21.50
2022-08-08T01:48:30.624Z,21.40
2022-08-08T01:52:51.324Z,21.40
2022-08-08T01:56:29.847Z,21.40
2022-08-08T01:59:02.750Z,21.40
2022-08-08T02:02:26.644Z,21.40
2022-08-08T02:05:56.568Z,21.40
2022-08-08T02:09:17.601Z,21.40
2022-08-08T02:12:27.281Z,21.40
2022-08-08T02:15:38.504Z,21.40
2022-08-08T02:18:46.291Z,21.40
2022-08-08T02:22:17.246Z,21.40
2022-08-08T02:25:28.164Z,21.40
2022-08-08T02:28:48.420Z,21.40
2022-08-08T02:32:22.530Z,21.40
2022-08-08T02:36:04.306Z,21.40
2022-08-08T02:39:40.869Z,21.30
2022-08-08T02:44:37.409Z,21.40
2022-08-08T02:46:55.798Z,21.30
2022-08-08T02:50:28.891Z,21.30
2022-08-08T02:53:44.701Z,21.30
2022-08-08T02:56:59.187Z,21.30
2022-08-08T03:00:31.142Z,21.20
2022-08-08T03:05:05.142Z,21.30
2022-08-08T03:07:59.341Z,21.30
2022-08-08T03:11:47.572Z,21.30
2022-08-08T03:15:56.483Z,21.20
2022-08-08T03:18:31.458Z,21.20
2022-08-08T03:21:41.044Z,21.20
2022-08-08T03:25:09.104Z,21.20
2022-08-08T03:28:22.158Z,21.20
2022-08-08T03:32:06.285Z,21.20
2022-08-08T03:35:20.431Z,21.20
2022-08-08T03:38:56.824Z,21.20
2022-08-08T03:42:27.229Z,21.20
2022-08-08T03:46:07.316Z,21.20
2022-08-08T03:49:56.311Z,21.20
2022-08-08T03:53:03.564Z,21.10
2022-08-08T03:56:09.785Z,21.20
2022-08-08T03:59:22.934Z,21.10
2022-08-08T04:02:36.457Z,21.10
2022-08-08T04:05:54.122Z,21.10
2022-08-08T04:09:10.333Z,21.10
2022-08-08T04:12:26.751Z,21.10
2022-08-08T04:15:38.376Z,21.10
2022-08-08T04:18:48.771Z,21.10
2022-08-08T04:21:54.681Z,21.10
2022-08-08T04:25:02.496Z,21.10
2022-08-08T04:28:37.174Z,21.10
2022-08-08T04:31:58.324Z,21.10
2022-08-08T04:35:04.110Z,21.10
2022-08-08T04:38:11.716Z,21.10
2022-08-08T04:41:27.290Z,21.10
2022-08-08T04:44:47.717Z,21.10
2022-08-08T04:47:57.484Z,21.00
2022-08-08T04:51:05.046Z,21.00
2022-08-08T04:54:40.345Z,21.00
2022-08-08T04:57:38.122Z,21.00
2022-08-08T05:00:43.555Z,21.00
2022-08-08T05:04:11.562Z,21.00
2022-08-08T05:07:18.218Z,21.00
2022-08-08T05:10:29.915Z,21.00
2022-08-08T05:13:35.403Z,21.00
2022-08-08T05:17:09.014Z,21.00
2022-08-08T05:20:19.113Z,21.00
2022-08-08T05:23:29.887Z,21.00
2022-08-08T05:26:36.448Z,21.00
2022-08-08T05:29:43.830Z,21.00
2022-08-08T05:33:08.579Z,21.00
2022-08-08T05:36:25.000Z,21.00
2022-08-08T05:39:35.103Z,21.00
2022-08-08T05:42:45.029Z,21.00
2022-08-08T05:45:53.265Z,21.00
2022-08-08T05:49:07.567Z,21.00
2022-08-08T05:52:20.421Z,21.00
2022-08-08T05:56:08.299Z,21.00
2022-08-08T05:59:12.756Z,21.00
2022-08-08T06:03:02.196Z,20.90
2022-08-08T06:06:09.952Z,21.00
2022-08-08T06:12:39.796Z,21.00
2022-08-08T06:15:53.471Z,20.90
2022-08-08T06:18:59.462Z,20.90
2022-08-08T06:22:32.118Z,21.00
2022-08-08T06:26:42.836Z,21.00
2022-08-08T06:29:26.202Z,21.00
2022-08-08T06:32:52.700Z,21.00
2022-08-08T06:36:07.431Z,21.00
2022-08-08T06:39:16.333Z,21.00
2022-08-08T06:42:28.295Z,21.00
2022-08-08T06:45:40.011Z,21.00
2022-08-08T06:48:49.262Z,21.00
2022-08-08T06:51:57.999Z,21.00
2022-08-08T06:55:07.227Z,21.10
2022-08-08T06:58:18.607Z,21.10
2022-08-08T07:02:18.033Z,21.10
2022-08-08T07:04:58.632Z,21.00
2022-08-08T07:08:23.655Z,21.00
2022-08-08T07:11:50.678Z,21.00
2022-08-08T07:15:06.527Z,21.10
2022-08-08T07:18:42.444Z,21.10
2022-08-08T07:22:05.461Z,21.10
2022-08-08T07:25:20.013Z,21.10
2022-08-08T07:28:31.487Z,21.10
2022-08-08T07:31:50.736Z,21.10
2022-08-08T07:35:19.162Z,21.10
2022-08-08T07:38:32.603Z,21.20
2022-08-08T07:42:04.113Z,21.20
2022-08-08T07:45:09.331Z,21.20
2022-08-08T07:48:21.194Z,21.20
2022-08-08T07:51:45.483Z,21.30
2022-08-08T07:55:02.178Z,21.30
2022-08-08T07:58:16.148Z,21.30
2022-08-08T08:02:36.387Z,21.30
2022-08-08T08:05:00.149Z,21.30
2022-08-08T08:08:08.805Z,21.30
2022-08-08T08:11:21.151Z,21.30
2022-08-08T08:14:43.514Z,21.30
2022-08-08T08:17:56.552Z,21.30
2022-08-08T08:21:13.396Z,21.30
2022-08-08T08:24:26.736Z,21.20
2022-08-08T08:27:46.547Z,21.20
2022-08-08T08:30:54.004Z,21.20
2022-08-08T08:34:02.863Z,21.30
2022-08-08T08:37:15.696Z,21.20
2022-08-08T08:40:30.098Z,21.30
2022-08-08T08:43:37.307Z,21.30
2022-08-08T08:46:58.798Z,21.30
2022-08-08T08:50:10.677Z,21.30
2022-08-08T08:53:55.278Z,21.30
2022-08-08T08:57:15.647Z,21.30
2022-08-08T09:00:44.591Z,21.30
2022-08-08T09:03:58.702Z,21.40
2022-08-08T09:07:12.264Z,21.40
2022-08-08T09:10:33.060Z,21.40
2022-08-08T09:13:50.451Z,21.40
2022-08-08T09:16:59.370Z,21.40
2022-08-08T09:22:00.704Z,21.30
2022-08-08T09:23:40.657Z,21.40
2022-08-08T09:26:53.540Z,21.40
2022-08-08T09:30:04.790Z,21.50
2022-08-08T09:34:15.729Z,21.50
2022-08-08T09:36:51.658Z,21.40
2022-08-08T09:40:10.720Z,21.50
2022-08-08T09:43:24.115Z,21.50
2022-08-08T09:46:57.448Z,21.50
2022-08-08T09:50:13.681Z,21.50
2022-08-08T09:54:01.135Z,21.60
2022-08-08T09:57:17.167Z,21.60
2022-08-08T10:00:53.343Z,21.60
2022-08-08T10:04:41.698Z,21.60
2022-08-08T10:08:03.299Z,21.60
2022-08-08T10:11:12.057Z,21.60
2022-08-08T10:14:46.355Z,21.60
2022-08-08T10:18:10.452Z,21.60
2022-08-08T10:21:28.538Z,21.60
2022-08-08T10:24:40.221Z,21.60
2022-08-08T10:27:54.060Z,21.70
2022-08-08T10:31:47.375Z,21.70
2022-08-08T10:35:01.491Z,21.70
2022-08-08T10:38:08.689Z,21.80
2022-08-08T10:41:35.432Z,21.80
2022-08-08T10:45:05.165Z,21.80
2022-08-08T10:48:17.304Z,21.90
2022-08-08T10:51:51.209Z,21.80
2022-08-08T10:55:06.123Z,21.90
2022-08-08T10:58:15.803Z,21.80
2022-08-08T11:01:25.246Z,21.80
2022-08-08T11:04:39.145Z,21.80
2022-08-08T11:08:30.711Z,21.80
2022-08-08T11:12:06.527Z,21.80
2022-08-08T11:15:11.790Z,21.80
2022-08-08T11:18:37.351Z,21.90
2022-08-08T11:21:55.536Z,22.00
2022-08-08T11:25:14.511Z,22.00
2022-08-08T11:28:31.801Z,22.10
2022-08-08T11:31:46.912Z,22.10
2022-08-08T11:35:27.460Z,22.10
2022-08-08T11:38:35.183Z,22.10
2022-08-08T11:42:15.979Z,22.10
2022-08-08T11:45:53.872Z,22.10
2022-08-08T11:49:09.347Z,22.10
2022-08-08T11:52:27.393Z,22.20
2022-08-08T11:55:39.578Z,22.20
2022-08-08T11:58:52.499Z,22.20
2022-08-08T12:02:31.264Z,22.20
2022-08-08T12:05:51.484Z,22.30
2022-08-08T12:09:20.683Z,22.20
2022-08-08T12:12:39.738Z,22.30
2022-08-08T12:15:51.180Z,22.30
2022-08-08T12:19:08.966Z,22.30
2022-08-08T12:22:21.000Z,22.20
2022-08-08T12:25:34.119Z,22.20
2022-08-08T12:28:45.365Z,22.20
2022-08-08T12:32:22.574Z,22.10
2022-08-08T12:35:52.295Z,22.20
2022-08-08T12:39:02.288Z,22.20
2022-08-08T12:42:21.342Z,22.20
2022-08-08T12:45:58.516Z,22.20
2022-08-08T12:52:39.938Z,22.10
2022-08-08T12:56:08.479Z,22.20
2022-08-08T12:59:44.551Z,22.20
2022-08-08T13:03:21.067Z,22.20
2022-08-08T13:06:29.160Z,22.20
2022-08-08T13:10:04.018Z,22.30
2022-08-08T13:13:13.984Z,22.30
2022-08-08T13:16:25.505Z,22.40
2022-08-08T13:19:49.676Z,22.40
2022-08-08T13:23:30.684Z,22.40
2022-08-08T13:26:37.202Z,22.40
2022-08-08T13:29:52.943Z,22.50
2022-08-08T13:33:03.143Z,22.50
2022-08-08T13:36:09.387Z,22.60
2022-08-08T13:39:18.610Z,22.50
2022-08-08T13:42:30.220Z,22.50
2022-08-08T13:45:50.820Z,22.50
2022-08-08T13:49:12.182Z,22.50
2022-08-08T13:52:37.391Z,22.50
2022-08-08T13:55:46.556Z,22.50
2022-08-08T13:58:58.444Z,22.50
2022-08-08T14:02:12.653Z,22.50
2022-08-08T14:05:34.315Z,22.50
2022-08-08T14:08:56.883Z,22.50
2022-08-08T14:12:13.051Z,22.60
2022-08-08T14:15:39.739Z,22.60
2022-08-08T14:19:10.701Z,22.60
2022-08-08T14:22:21.769Z,22.60
2022-08-08T14:25:29.474Z,22.60
2022-08-08T14:28:39.775Z,22.70
2022-08-08T14:32:10.720Z,22.60
2022-08-08T14:35:23.709Z,22.70
2022-08-08T14:38:51.877Z,22.70
2022-08-08T14:42:07.478Z,22.60
2022-08-08T14:45:18.461Z,22.60
2022-08-08T14:48:57.316Z,22.60
2022-08-08T14:52:10.889Z,22.60
2022-08-08T14:55:22.689Z,22.70
2022-08-08T14:58:41.053Z,22.70
2022-08-08T15:01:51.515Z,22.70
2022-08-08T15:05:10.739Z,22.80
2022-08-08T15:08:22.402Z,22.80
2022-08-08T15:11:46.029Z,22.80
2022-08-08T15:14:56.602Z,22.80
2022-08-08T15:18:01.848Z,22.80
2022-08-08T15:21:12.029Z,22.80
2022-08-08T15:24:18.591Z,22.80
2022-08-08T15:28:05.248Z,22.80
2022-08-08T15:30:54.073Z,22.80
2022-08-08T15:34:01.433Z,22.90
2022-08-08T15:37:12.936Z,22.90
2022-08-08T15:40:20.800Z,22.90
2022-08-08T15:43:35.945Z,22.90
2022-08-08T15:46:50.548Z,22.90
2022-08-08T15:49:56.731Z,22.90
2022-08-08T15:53:15.046Z,22.90
2022-08-08T15:56:21.114Z,22.90
2022-08-08T16:00:06.472Z,22.90
2022-08-08T16:02:55.768Z,22.90
2022-08-08T16:06:05.324Z,22.90
2022-08-08T16:13:04.076Z,22.90
2022-08-08T16:13:10.888Z,22.90
2022-08-08T16:16:17.546Z,23.00
2022-08-08T16:19:25.936Z,22.90
2022-08-08T16:22:31.250Z,22.90
2022-08-08T16:25:53.746Z,23.00
2022-08-08T16:29:07.760Z,23.00
2022-08-08T16:32:30.548Z,23.00
2022-08-08T16:35:37.507Z,23.00
2022-08-08T16:38:47.638Z,23.00
2022-08-08T16:42:01.882Z,23.10
2022-08-08T16:45:11.504Z,23.10
2022-08-08T16:48:37.042Z,23.10
2022-08-08T16:55:03.234Z,23.10
2022-08-08T16:55:34.365Z,23.10
2022-08-08T16:58:43.002Z,23.10
2022-08-08T17:01:50.190Z,23.10
2022-08-08T17:04:58.060Z,23.10
2022-08-08T17:08:04.082Z,23.10
2022-08-08T17:11:16.810Z,23.10
2022-08-08T17:14:33.986Z,23.10
2022-08-08T17:18:03.165Z,23.00
2022-08-08T17:21:11.536Z,23.10
2022-08-08T17:24:29.929Z,23.10
2022-08-08T17:27:46.213Z,23.00
2022-08-08T17:30:57.601Z,23.10
2022-08-08T17:34:47.921Z,23.10
2022-08-08T17:37:32.736Z,23.00
2022-08-08T17:40:41.376Z,23.10
2022-08-08T17:44:01.222Z,23.10
2022-08-08T17:47:10.187Z,23.10
2022-08-08T17:50:17.635Z,23.10
2022-08-08T17:53:43.170Z,23.20
2022-08-08T17:56:50.698Z,23.10
2022-08-08T17:59:58.757Z,23.10
2022-08-08T18:03:14.018Z,23.10
2022-08-08T18:06:30.597Z,23.10
2022-08-08T18:09:39.039Z,23.10
2022-08-08T18:12:46.218Z,23.20
2022-08-08T18:16:00.118Z,23.30
2022-08-08T18:19:13.310Z,23.40
2022-08-08T18:22:32.878Z,23.40
2022-08-08T18:25:50.826Z,23.50
2022-08-08T18:28:59.333Z,23.60
2022-08-08T18:32:07.438Z,23.60
2022-08-08T18:35:18.390Z,23.60
2022-08-08T18:38:29.707Z,23.70
2022-08-08T18:41:51.925Z,23.70
2022-08-08T18:45:09.207Z,23.80
2022-08-08T18:48:29.892Z,23.90
2022-08-08T18:51:48.862Z,23.90
2022-08-08T18:55:10.315Z,23.90
2022-08-08T18:58:16.709Z,24.00
2022-08-08T19:02:25.004Z,24.00
2022-08-08T19:04:54.236Z,24.10
2022-08-08T19:08:04.423Z,24.10
2022-08-08T19:11:09.908Z,24.10
2022-08-08T19:14:24.865Z,24.10
2022-08-08T19:17:47.974Z,24.10
2022-08-08T19:21:00.550Z,24.20
2022-08-08T19:24:14.453Z,24.20
2022-08-08T19:27:55.522Z,24.20
2022-08-08T19:31:07.304Z,24.20
2022-08-08T19:34:35.838Z,24.10
2022-08-08T19:37:48.601Z,24.10
2022-08-08T19:41:05.760Z,24.10
2022-08-08T19:44:42.460Z,24.10
2022-08-08T19:47:42.296Z,24.10
2022-08-08T19:50:47.637Z,24.10
2022-08-08T19:53:56.086Z,24.10
2022-08-08T19:57:07.855Z,24.10
2022-08-08T20:00:30.659Z,24.10
2022-08-08T20:04:01.337Z,24.10
2022-08-08T20:08:26.958Z,24.10
2022-08-08T20:10:30.012Z,24.00
2022-08-08T20:14:33.085Z,24.00
2022-08-08T20:17:05.843Z,23.90
2022-08-08T20:20:19.323Z,23.90
2022-08-08T20:23:25.390Z,23.90
2022-08-08T20:26:33.996Z,23.90
2022-08-08T20:29:55.287Z,23.80
2022-08-08T20:33:19.684Z,23.80
2022-08-08T20:36:22.194Z,23.80
2022-08-08T20:39:39.784Z,23.90
2022-08-08T20:42:55.965Z,23.80
2022-08-08T20:46:06.150Z,23.80
2022-08-08T20:49:13.350Z,23.80
2022-08-08T20:52:20.754Z,23.80
2022-08-08T20:55:26.384Z,23.80
2022-08-08T20:58:35.205Z,23.80
2022-08-08T21:02:05.684Z,23.80
2022-08-08T21:05:10.964Z,23.80
2022-08-08T21:08:35.944Z,23.80
2022-08-08T21:11:51.974Z,23.70
2022-08-08T21:14:58.839Z,23.80
2022-08-08T21:18:16.794Z,23.70
2022-08-08T21:21:41.104Z,23.70
2022-08-08T21:24:52.713Z,23.70
2022-08-08T21:28:13.396Z,23.60
2022-08-08T21:31:23.889Z,23.60
2022-08-08T21:34:51.905Z,23.60
2022-08-08T21:38:05.627Z,23.60
2022-08-08T21:41:28.716Z,23.70
2022-08-08T21:44:59.212Z,23.70
2022-08-08T21:48:20.003Z,23.60
2022-08-08T21:54:32.945Z,23.60
2022-08-08T21:55:02.773Z,23.60
2022-08-08T21:58:13.561Z,23.60
2022-08-08T22:01:28.189Z,23.60
2022-08-08T22:04:46.464Z,23.60
2022-08-08T22:08:00.108Z,23.50
2022-08-08T22:11:51.124Z,23.50
2022-08-08T22:14:33.706Z,23.50
2022-08-08T22:17:45.461Z,23.40
2022-08-08T22:20:51.310Z,23.40
2022-08-08T22:24:02.096Z,23.40
2022-08-08T22:27:07.988Z,23.40
2022-08-08T22:30:16.541Z,23.40
2022-08-08T22:34:12.284Z,23.30
2022-08-08T22:37:03.646Z,23.30
2022-08-08T22:40:17.115Z,23.30
2022-08-08T22:43:24.808Z,23.30
2022-08-08T22:46:34.155Z,23.20
2022-08-08T22:49:41.858Z,23.20
2022-08-08T22:52:48.936Z,23.20
2022-08-08T22:56:17.331Z,23.20
2022-08-08T22:59:26.899Z,23.20
2022-08-08T23:02:44.643Z,23.20
2022-08-08T23:05:55.414Z,23.20
2022-08-08T23:09:09.485Z,23.10
2022-08-08T23:12:39.920Z,23.10
2022-08-08T23:16:40.755Z,23.10
2022-08-08T23:19:10.802Z,23.10
2022-08-08T23:22:20.762Z,23.10
2022-08-08T23:25:28.313Z,23.10
2022-08-08T23:28:38.606Z,23.10
2022-08-08T23:31:45.499Z,23.10
2022-08-08T23:34:59.079Z,23.10
2022-08-08T23:38:05.035Z,23.10
2022-08-08T23:41:22.791Z,23.10
2022-08-08T23:44:32.590Z,23.10
2022-08-08T23:49:02.239Z,23.10
2022-08-08T23:51:12.902Z,23.10
2022-08-08T23:54:42.873Z,23.10
2022-08-08T23:58:01.823Z,23.10
